Latest Weather Observations for Mount Crawford

IDS60901

Issued at 8:51 pm CST Friday 22 May 2015 (issued every 10 minutes, with the page automatically refreshed every 10 minutes)

About weather observations | Map of Adelaide area stations | Latest observations for Adelaide area | Other Formats
Station Details ID: 023878 Name: MT CRAWFORD AWS Lat: -34.73 Lon: 138.93 Height: 525.0 m
Data from the previous 72 hours. | See also: Recent months at Mount Crawford
Date/Time
CST
Tmp

°C
App
Tmp
°C
Dew
Point
°C
Rel
Hum
%
Delta-T

°C
Wind Press
QNH
hPa
Press
MSL
hPa
Rain
since
9 am
mm
Dir
 
Spd
km/h
Gust
km/h
Spd
kts
Gust
kts
22/08:30pm 6.0 1.2 5.4 96 0.3 SE 20 26 11 14 1030.5 1030.3 0.0
22/08:00pm 6.2 1.6 5.6 96 0.3 SE 19 24 10 13 1030.5 1030.3 0.0
22/07:30pm 6.2 1.4 5.6 96 0.3 SE 20 28 11 15 1030.3 1030.1 0.0
22/07:00pm 6.5 1.7 5.8 95 0.3 SE 20 30 11 16 1030.3 1030.1 0.0
22/06:30pm 6.7 1.9 5.5 92 0.5 SE 20 28 11 15 1030.2 1030.0 0.0
22/06:00pm 7.0 2.2 5.5 90 0.7 SE 20 32 11 17 1030.0 1029.8 0.0
22/05:30pm 7.6 3.4 5.9 89 0.8 SSE 17 30 9 16 1030.0 1029.8 0.0
22/05:00pm 8.1 4.3 5.9 86 1.0 SSE 15 20 8 11 1030.0 1029.8 0.0
22/04:30pm 9.5 6.3 6.9 84 1.2 SSE 13 19 7 10 1030.1 1029.9 0.0
22/04:00pm 9.6 5.9 6.5 81 1.5 S 15 24 8 13 1030.1 1029.9 0.0
22/03:30pm 10.0 6.3 6.3 78 1.8 SSE 15 20 8 11 1030.1 1029.9 0.0
22/03:00pm 10.4 7.3 7.1 80 1.6 S 13 20 7 11 1029.9 1029.7 0.0
22/02:30pm 9.6 5.9 6.1 79 1.7 SSE 15 19 8 10 1029.9 1029.7 0.0
22/02:00pm 10.5 7.0 7.2 80 1.6 SSE 15 22 8 12 1030.0 1029.8 0.0
22/01:30pm 10.1 5.8 7.2 82 1.4 SSE 19 26 10 14 1030.0 1029.8 0.0
22/01:00pm 10.7 6.9 7.4 80 1.6 SE 17 28 9 15 1030.0 1029.8 0.0
22/12:30pm 10.1 5.3 7.5 84 1.3 SE 22 30 12 16 1030.1 1029.9 0.0
22/12:00pm 9.6 4.5 7.5 87 1.0 ESE 24 37 13 20 1030.2 1030.0 0.0
22/11:30am 8.9 3.3 7.2 89 0.8 SE 26 39 14 21 1030.5 1030.3 0.0
22/11:00am 8.9 3.7 7.4 90 0.7 ESE 24 35 13 19 1030.8 1030.7 0.0
22/10:30am 8.8 3.1 8.4 97 0.2 SE 28 39 15 21 1030.8 1030.7 0.0
22/10:00am 8.0 2.2 8.0 100 0.0 SE 28 39 15 21 1030.4 1030.2 0.0
22/09:30am 7.4 1.1 7.4 100 0.0 ESE 30 41 16 22 1030.0 1029.8 0.0
22/09:00am 6.7 1.0 6.7 100 0.0 SE 26 39 14 21 1030.1 1029.9 1.2
22/08:30am 6.4 -0.1 6.4 100 0.0 SE 30 43 16 23 1029.6 1029.4 1.2
22/08:00am 6.1 -0.9 6.1 100 0.0 SE 32 43 17 23 1029.3 1029.1 1.2
22/07:30am 6.1 -0.9 6.1 100 0.0 ESE 32 43 17 23 1029.0 1028.9 1.2
22/07:02am 6.3 -0.2 6.3 100 0.0 SE 30 48 16 26 1028.6 1028.4 1.0
22/07:00am 6.4 0.3 6.4 100 0.0 SE 28 39 15 21 1028.7 1028.5 1.0
22/06:30am 6.5 0.4 6.5 100 0.0 SE 28 41 15 22 1028.3 1028.1 1.0
22/06:00am 6.8 1.9 6.8 100 0.0 SE 22 35 12 19 1028.2 1028.0 1.0
22/05:30am 6.9 2.0 6.9 100 0.0 SE 22 35 12 19 1028.2 1028.0 1.0
22/05:00am 6.8 2.3 6.8 100 0.0 SE 20 33 11 18 1028.1 1027.9 1.0
22/04:30am 7.0 3.1 7.0 100 0.0 SSE 17 26 9 14 1028.0 1027.8 1.0
22/04:00am 7.2 3.7 7.2 100 0.0 SSE 15 26 8 14 1028.0 1027.8 1.0
22/03:30am 7.2 4.1 7.2 100 0.0 SSE 13 20 7 11 1027.9 1027.7 1.0
22/03:00am 7.1 4.0 7.1 100 0.0 SSE 13 19 7 10 1028.1 1027.9 1.0
22/02:30am 7.1 4.7 7.1 100 0.0 SE 9 19 5 10 1028.1 1027.9 1.0
22/02:00am 7.3 5.0 7.3 100 0.0 SSE 9 13 5 7 1028.0 1027.8 1.0
22/01:30am 7.2 4.1 7.2 100 0.0 SSE 13 19 7 10 1028.0 1027.8 1.0
22/01:00am 7.3 3.8 7.3 100 0.0 SSE 15 22 8 12 1028.0 1027.8 1.0
22/12:30am 7.3 4.6 7.3 100 0.0 S 11 19 6 10 1028.1 1027.9 0.8
22/12:00am 7.1 4.0 7.1 100 0.0 SSW 13 17 7 9 1028.1 1027.9 0.8
 
Date/Time
CST
Tmp

°C
App
Tmp
°C
Dew
Point
°C
Rel
Hum
%
Delta-T

°C
Wind Press
QNH
hPa
Press
MSL
hPa
Rain
since
9 am
mm
Dir
 
Spd
km/h
Gust
km/h
Spd
kts
Gust
kts
21/11:30pm 6.9 4.5 6.9 100 0.0 SW 9 15 5 8 1028.2 1028.0 0.8
21/11:00pm 6.9 4.1 6.9 100 0.0 SSW 11 17 6 9 1028.3 1028.1 0.8
21/10:30pm 6.8 3.6 6.8 100 0.0 SSW 13 19 7 10 1028.3 1028.1 0.8
21/10:00pm 6.4 3.1 6.4 100 0.0 SSW 13 17 7 9 1028.5 1028.3 0.8
21/09:30pm 6.5 3.2 6.5 100 0.0 SSW 13 17 7 9 1028.4 1028.2 0.8
21/09:00pm 6.4 2.7 6.3 99 0.0 SSW 15 20 8 11 1028.2 1028.0 0.8
21/08:30pm 6.4 1.9 6.3 99 0.0 SSW 19 28 10 15 1028.1 1027.9 0.8
21/08:00pm 6.6 1.6 6.5 99 0.0 SSW 22 28 12 15 1027.8 1027.6 0.8
21/07:30pm 6.5 1.9 6.4 99 0.0 SSW 20 26 11 14 1027.6 1027.4 0.6
21/07:00pm 6.6 2.2 6.5 99 0.0 SSW 19 26 10 14 1027.5 1027.3 0.6
21/06:30pm 6.7 2.7 6.6 99 0.0 S 17 24 9 13 1027.3 1027.0 0.6
21/06:00pm 7.0 2.7 6.9 99 0.0 S 19 24 10 13 1027.0 1026.8 0.6
21/05:30pm 7.2 3.9 6.6 96 0.3 S 13 17 7 9 1026.7 1026.5 0.6
21/05:00pm 7.5 4.2 6.4 93 0.5 S 13 19 7 10 1026.4 1026.2 0.6
21/04:30pm 7.9 4.0 7.0 94 0.4 S 17 24 9 13 1026.3 1026.1 0.6
21/04:00pm 8.7 5.4 6.5 86 1.0 SSW 13 19 7 10 1026.1 1025.9 0.6
21/03:30pm 8.6 5.3 6.4 86 1.0 SSW 13 20 7 11 1025.9 1025.7 0.6
21/03:00pm 8.5 4.0 6.3 86 1.0 S 19 30 10 16 1026.0 1025.8 0.6
21/02:30pm 8.9 4.4 6.2 83 1.3 SSW 19 26 10 14 1025.8 1025.6 0.6
21/02:00pm 8.4 4.6 7.5 94 0.4 SW 17 22 9 12 1026.0 1025.8 0.6
21/01:30pm 7.6 4.6 7.5 99 0.0 SSW 13 19 7 10 1026.2 1026.0 0.6
21/01:00pm 7.2 3.3 7.1 99 0.0 S 17 26 9 14 1026.2 1026.0 0.6
21/12:30pm 7.9 4.3 6.8 93 0.5 SSW 15 19 8 10 1026.3 1026.1 0.6
21/12:00pm 7.3 4.2 7.2 99 0.0 SSW 13 20 7 11 1026.6 1026.4 0.6
21/11:30am 6.6 3.3 6.5 99 0.0 SSE 13 20 7 11 1026.9 1026.7 0.4
21/11:00am 6.5 3.2 6.4 99 0.0 ESE 13 17 7 9 1027.0 1026.8 0.2
21/10:30am 6.6 2.9 6.3 98 0.1 SE 15 24 8 13 1027.1 1026.9 0.0
21/10:00am 6.5 2.2 5.1 91 0.6 SE 17 24 9 13 1026.9 1026.7 0.0
21/09:30am 6.9 2.7 5.5 91 0.6 SSE 17 24 9 13 1026.5 1026.3 0.0
21/09:00am 6.8 3.6 6.7 99 0.0 SE 13 19 7 10 1026.1 1025.9 1.8
21/08:30am 6.0 2.2 6.0 100 0.0 SE 15 22 8 12 1025.8 1025.6 1.8
21/08:00am 5.1 0.8 5.1 100 0.0 SE 17 22 9 12 1025.5 1025.2 1.8
21/07:30am 4.6 0.9 4.6 100 0.0 SE 13 17 7 9 1025.0 1024.8 1.8
21/07:00am 4.7 0.3 4.7 100 0.0 SE 17 22 9 12 1024.6 1024.4 1.8
21/06:30am 4.9 0.1 4.9 100 0.0 SE 19 30 10 16 1024.2 1024.0 1.8
21/06:00am 4.9 0.5 4.9 100 0.0 ESE 17 24 9 13 1024.0 1023.8 1.8
21/05:30am 4.8 0.0 4.8 100 0.0 ESE 19 24 10 13 1023.8 1023.5 1.8
21/05:00am 4.7 -0.3 4.7 100 0.0 SE 20 30 11 16 1023.6 1023.3 1.8
21/04:30am 5.0 0.1 5.0 100 0.0 ESE 20 28 11 15 1023.2 1022.9 1.8
21/04:00am 4.9 0.0 4.9 100 0.0 SE 20 28 11 15 1022.9 1022.7 1.8
21/03:30am 5.0 -0.3 5.0 100 0.0 SE 22 30 12 16 1022.9 1022.7 1.6
21/03:00am 5.3 0.6 5.3 100 0.0 SE 19 26 10 14 1022.8 1022.6 1.6
21/02:30am 5.3 1.0 5.3 100 0.0 SE 17 24 9 13 1022.8 1022.6 1.6
21/02:00am 5.4 0.8 5.4 100 0.0 SE 19 26 10 14 1022.8 1022.6 1.6
21/01:30am 5.8 1.2 5.8 100 0.0 SE 19 26 10 14 1022.7 1022.5 1.6
21/01:00am 5.7 1.9 5.7 100 0.0 SE 15 20 8 11 1022.6 1022.4 1.6
21/12:30am 5.7 0.9 5.7 100 0.0 ESE 20 26 11 14 1022.5 1022.3 1.6
21/12:00am 5.7 0.9 5.7 100 0.0 ESE 20 28 11 15 1022.5 1022.3 1.6
 
Date/Time
CST
Tmp

°C
App
Tmp
°C
Dew
Point
°C
Rel
Hum
%
Delta-T

°C
Wind Press
QNH
hPa
Press
MSL
hPa
Rain
since
9 am
mm
Dir
 
Spd
km/h
Gust
km/h
Spd
kts
Gust
kts
20/11:30pm 5.9 1.2 5.9 100 0.0 ESE 20 30 11 16 1022.3 1022.0 1.6
20/11:00pm 6.3 1.7 6.3 100 0.0 ESE 20 30 11 16 1022.2 1021.9 1.6
20/10:30pm 6.4 1.0 6.4 100 0.0 SE 24 35 13 19 1022.1 1021.8 1.4
20/10:00pm 7.0 3.1 6.9 99 0.0 SSW 17 26 9 14 1022.0 1021.7 0.8
20/09:30pm 7.0 3.1 6.9 99 0.0 SSW 17 20 9 11 1022.1 1021.8 0.2
20/09:00pm 7.0 3.4 6.9 99 0.0 SSW 15 24 8 13 1021.9 1021.6 0.2
20/08:30pm 6.9 2.5 6.6 98 0.1 SSW 19 24 10 13 1021.6 1021.3 0.0
20/08:00pm 6.8 2.3 6.2 96 0.3 SSW 19 24 10 13 1021.4 1021.1 0.0
20/07:30pm 6.7 2.5 5.5 92 0.5 SSW 17 22 9 12 1021.2 1020.9 0.0
20/07:00pm 6.8 3.2 4.8 87 0.9 SW 13 19 7 10 1020.9 1020.7 0.0
20/06:30pm 7.2 3.6 5.0 86 1.0 SW 13 19 7 10 1020.5 1020.2 0.0
20/06:00pm 7.7 3.4 5.3 85 1.1 SW 17 22 9 12 1020.0 1019.7 0.0
20/05:30pm 8.0 4.1 5.5 84 1.2 SW 15 20 8 11 1019.7 1019.4 0.0
20/05:00pm 8.8 4.6 5.5 80 1.5 SSW 17 24 9 13 1019.3 1019.0 0.0
20/04:30pm 8.5 4.3 5.8 83 1.3 SW 17 20 9 11 1018.9 1018.6 0.0
20/04:00pm 8.6 5.3 6.4 86 1.0 SSW 13 17 7 9 1018.7 1018.4 0.0
20/03:30pm 8.8 5.5 6.2 84 1.2 SSW 13 19 7 10 1018.6 1018.3 0.0
20/03:00pm 9.5 5.6 6.9 84 1.3 S 17 22 9 12 1018.5 1018.2 0.0
20/02:30pm 9.2 4.8 7.6 90 0.8 SSW 20 28 11 15 1018.3 1018.0 0.0
20/02:00pm 8.8 4.2 6.6 86 1.1 SSW 20 24 11 13 1018.2 1017.9 0.0
20/01:30pm 10.0 6.9 7.1 82 1.4 SW 13 22 7 12 1018.0 1017.7 0.0
20/01:00pm 10.4 7.0 6.0 74 2.1 SW 13 20 7 11 1018.0 1017.7 0.0
20/12:30pm 10.7 7.8 6.3 74 2.1 SW 11 19 6 10 1018.0 1017.7 0.0
20/12:00pm 10.5 6.9 8.4 87 1.1 SW 17 22 9 12 1018.2 1017.9 0.0
20/11:30am 9.6 6.0 6.7 82 1.4 SSW 15 22 8 12 1018.4 1018.1 0.0
20/11:00am 9.7 6.6 7.3 85 1.2 SSW 13 19 7 10 1018.7 1018.4 0.0
20/10:30am 9.5 5.9 8.3 92 0.6 SSW 17 28 9 15 1018.5 1018.2 0.0
20/10:00am 8.7 5.9 8.4 98 0.1 SSW 13 17 7 9 1018.2 1017.9 0.0
20/09:30am 8.8 5.3 8.7 99 0.0 SSW 17 28 9 15 1017.7 1017.4 0.0
20/09:00am 8.4 5.6 8.4 100 0.0 SW 13 22 7 12 1017.2 1016.8 3.0
20/08:30am 8.2 6.5 8.2 100 0.0 SW 7 11 4 6 1017.1 1016.7 3.0
20/08:00am 8.0 5.8 8.0 100 0.0 SW 9 13 5 7 1016.5 1016.2 3.0
20/07:30am 7.8 4.8 7.8 100 0.0 SW 13 19 7 10 1015.8 1015.4 3.0
20/07:00am 7.8 5.6 7.8 100 0.0 SW 9 15 5 8 1015.2 1014.8 3.0
20/06:30am 8.3 5.4 8.3 100 0.0 SW 13 19 7 10 1014.9 1014.6 2.8
20/06:00am 8.6 5.8 8.6 100 0.0 WSW 13 20 7 11 1014.5 1014.2 2.6
20/05:30am 8.7 5.2 8.7 100 0.0 WSW 17 26 9 14 1014.1 1013.7 2.6
20/05:00am 8.8 4.9 8.8 100 0.0 WSW 19 28 10 15 1013.6 1013.2 2.4
20/04:30am 8.8 4.9 8.8 100 0.0 WSW 19 28 10 15 1013.2 1012.8 2.4
20/04:00am 9.0 5.2 9.0 100 0.0 WSW 19 30 10 16 1012.9 1012.6 2.4
20/03:30am 9.1 5.1 9.1 100 0.0 WSW 20 33 11 18 1012.8 1012.5 2.4
20/03:00am 9.2 4.9 9.2 100 0.0 WSW 22 35 12 19 1012.7 1012.4 2.4
20/02:30am 9.5 4.9 9.5 100 0.0 WSW 24 37 13 20 1012.6 1012.3 2.4
20/02:00am 9.8 5.6 9.8 100 0.0 WSW 22 37 12 20 1012.2 1011.8 2.0
20/01:30am 10.2 5.0 10.2 100 0.0 W 28 41 15 22 1012.1 1011.7 1.8
20/01:00am 10.4 5.2 10.4 100 0.0 W 28 43 15 23 1011.9 1011.5 1.8
20/12:30am 10.4 4.9 10.4 100 0.0 WSW 30 48 16 26 1011.8 1011.4 1.8
20/12:14am 10.4 4.9 10.4 100 0.0 W 30 48 16 26 1011.6 1011.2 1.8
20/12:00am 10.4 4.5 10.4 100 0.0 W 32 44 17 24 1011.6 1011.2 1.8
 
Date/Time
CST
Tmp

°C
App
Tmp
°C
Dew
Point
°C
Rel
Hum
%
Delta-T

°C
Wind Press
QNH
hPa
Press
MSL
hPa
Rain
since
9 am
mm
Dir
 
Spd
km/h
Gust
km/h
Spd
kts
Gust
kts
19/11:37pm 10.5 4.6 10.5 100 0.0 W 32 50 17 27 1011.2 1010.8 1.8
19/11:30pm 10.6 4.7 10.6 100 0.0 W 32 48 17 26 1011.3 1010.9 1.8
19/11:00pm 10.8 4.0 10.8 100 0.0 W 37 56 20 30 1010.8 1010.4 1.8
19/10:30pm 11.0 3.9 11.0 100 0.0 W 39 57 21 31 1010.8 1010.4 1.8
19/10:00pm 11.1 4.8 11.1 100 0.0 W 35 56 19 30 1010.7 1010.3 1.8
19/09:30pm 11.2 3.4 11.2 100 0.0 W 43 70 23 38 1009.9 1009.5 1.8
19/09:00pm 11.2 3.4 11.2 100 0.0 W 43 69 23 37 1009.8 1009.4 1.8

Latest Capital City Observations: Canberra | Sydney | Melbourne | Brisbane | Adelaide | Perth | Hobart | Darwin

Other Formats:

Comma delimited format used in spreadsheet applications
http://www.bom.gov.au/fwo/IDS60901/IDS60901.94678.axf

JavaScript Object Notation format (JSON) in row-major order
http://www.bom.gov.au/fwo/IDS60901/IDS60901.94678.json